createdAt,value
2019-06-20T00:00:57.874Z,53.60
2019-06-20T00:02:06.263Z,53.40
2019-06-20T00:03:14.865Z,53.50
2019-06-20T00:04:22.885Z,53.50
2019-06-20T00:05:30.200Z,53.60
2019-06-20T00:06:39.290Z,53.60
2019-06-20T00:07:46.498Z,53.70
2019-06-20T00:08:54.503Z,53.60
2019-06-20T00:10:02.795Z,53.50
2019-06-20T00:11:11.972Z,53.40
2019-06-20T00:12:19.227Z,53.30
2019-06-20T00:13:27.245Z,53.30
2019-06-20T00:14:34.478Z,53.20
2019-06-20T00:15:42.967Z,53.10
2019-06-20T00:16:50.169Z,53.00
2019-06-20T00:17:58.157Z,52.60
2019-06-20T00:19:05.357Z,52.10
2019-06-20T00:20:13.980Z,51.00
2019-06-20T00:21:21.203Z,50.40
2019-06-20T00:22:29.190Z,49.90
2019-06-20T00:23:36.400Z,49.70
2019-06-20T00:24:44.456Z,50.20
2019-06-20T00:25:51.686Z,49.90
2019-06-20T00:26:59.685Z,50.00
2019-06-20T00:28:06.891Z,50.10
2019-06-20T00:29:14.886Z,50.30
2019-06-20T00:30:22.291Z,50.50
2019-06-20T00:31:30.298Z,50.60
2019-06-20T00:32:37.521Z,50.70
2019-06-20T00:33:45.557Z,50.90
2019-06-20T00:34:52.754Z,51.10
2019-06-20T00:36:00.758Z,51.20
2019-06-20T00:37:07.956Z,51.70
2019-06-20T00:38:16.935Z,51.70
2019-06-20T00:39:24.160Z,51.60
2019-06-20T00:40:32.195Z,51.60
2019-06-20T00:41:39.622Z,51.70
2019-06-20T00:42:47.637Z,51.80
2019-06-20T00:43:54.892Z,51.90
2019-06-20T00:45:02.884Z,52.10
2019-06-20T00:46:10.109Z,52.60
2019-06-20T00:47:18.113Z,52.60
2019-06-20T00:48:25.339Z,53.10
2019-06-20T00:49:33.330Z,53.00
2019-06-20T00:50:40.541Z,53.40
2019-06-20T00:51:48.547Z,53.50
2019-06-20T00:52:55.772Z,53.70
2019-06-20T00:54:03.778Z,54.10
2019-06-20T00:55:11.214Z,54.50
2019-06-20T00:56:19.238Z,54.50
2019-06-20T00:57:26.459Z,54.80
2019-06-20T00:58:34.465Z,54.90
2019-06-20T00:59:41.675Z,55.30
2019-06-20T01:00:49.669Z,56.10
2019-06-20T01:01:56.883Z,56.40
2019-06-20T01:03:05.395Z,56.70
2019-06-20T01:04:12.619Z,57.00
2019-06-20T01:05:20.610Z,57.10
2019-06-20T01:06:27.928Z,57.50
2019-06-20T01:07:35.931Z,57.80
2019-06-20T01:08:43.170Z,58.00
2019-06-20T01:09:51.162Z,58.10
2019-06-20T01:10:58.411Z,58.50
2019-06-20T01:12:06.363Z,59.10
2019-06-20T01:13:13.573Z,59.20
2019-06-20T01:14:21.595Z,59.70
2019-06-20T01:15:28.806Z,60.10
2019-06-20T01:16:36.796Z,60.30
2019-06-20T01:17:44.009Z,60.60
2019-06-20T01:18:51.997Z,60.60
2019-06-20T01:19:59.227Z,61.10
2019-06-20T01:21:09.795Z,61.50
2019-06-20T01:22:17.006Z,61.70
2019-06-20T01:23:24.996Z,62.10
2019-06-20T01:24:32.280Z,62.40
2019-06-20T01:25:44.054Z,62.70
2019-06-20T01:26:51.252Z,63.10
2019-06-20T01:27:59.270Z,62.90
2019-06-20T01:29:06.660Z,63.10
2019-06-20T01:30:15.357Z,63.20
2019-06-20T01:31:22.596Z,63.60
2019-06-20T01:32:30.585Z,63.50
2019-06-20T01:33:37.810Z,63.70
2019-06-20T01:34:45.806Z,64.00
2019-06-20T01:35:54.093Z,63.90
2019-06-20T01:37:02.112Z,64.10
2019-06-20T01:38:09.417Z,64.30
2019-06-20T01:39:17.423Z,64.40
2019-06-20T01:40:24.632Z,64.60
2019-06-20T01:41:32.696Z,64.60
2019-06-20T01:42:39.936Z,65.60
2019-06-20T01:43:50.876Z,64.80
2019-06-20T01:44:56.862Z,65.00
2019-06-20T01:46:05.273Z,65.10
2019-06-20T01:47:12.500Z,65.50
2019-06-20T01:48:20.519Z,65.80
2019-06-20T01:49:27.715Z,65.80
2019-06-20T01:50:35.707Z,65.80
2019-06-20T01:51:42.931Z,65.90
2019-06-20T01:52:50.938Z,65.90
2019-06-20T01:53:58.210Z,65.80
2019-06-20T01:55:06.934Z,65.80
2019-06-20T01:56:14.159Z,66.10
2019-06-20T01:57:22.360Z,66.40
2019-06-20T01:58:29.600Z,66.60
2019-06-20T01:59:37.618Z,66.70
2019-06-20T02:00:48.388Z,66.70
2019-06-20T02:01:56.400Z,66.90
2019-06-20T02:03:03.788Z,66.90
2019-06-20T02:04:11.781Z,66.80
2019-06-20T02:05:19.105Z,66.80
2019-06-20T02:06:27.099Z,66.60
2019-06-20T02:07:34.310Z,66.60
2019-06-20T02:08:42.305Z,66.40
2019-06-20T02:09:49.511Z,66.50
2019-06-20T02:10:57.514Z,66.20
2019-06-20T02:12:04.982Z,66.10
2019-06-20T02:13:13.375Z,66.20
2019-06-20T02:14:20.600Z,66.00
2019-06-20T02:15:28.621Z,66.30
2019-06-20T02:16:35.847Z,66.30
2019-06-20T02:17:43.855Z,66.30
2019-06-20T02:18:51.093Z,66.10
2019-06-20T02:19:59.105Z,65.60
2019-06-20T02:21:07.195Z,65.70
2019-06-20T02:22:15.191Z,65.50
2019-06-20T02:23:23.436Z,65.30
2019-06-20T02:24:31.439Z,65.40
2019-06-20T02:25:38.772Z,65.30
2019-06-20T02:26:46.774Z,65.20
2019-06-20T02:27:54.001Z,65.30
2019-06-20T02:29:02.007Z,65.50
2019-06-20T02:30:09.432Z,65.50
2019-06-20T02:31:17.421Z,65.30
2019-06-20T02:32:24.631Z,65.20
2019-06-20T02:33:32.659Z,65.30
2019-06-20T02:34:39.933Z,65.40
2019-06-20T02:35:48.054Z,66.20
2019-06-20T02:36:55.257Z,65.30
2019-06-20T02:38:03.248Z,65.10
2019-06-20T02:39:10.561Z,65.10
2019-06-20T02:40:18.691Z,65.10
2019-06-20T02:41:25.924Z,65.00
2019-06-20T02:42:33.918Z,65.20
2019-06-20T02:43:41.133Z,65.50
2019-06-20T02:44:49.156Z,65.50
2019-06-20T02:45:56.497Z,65.60
2019-06-20T02:47:04.525Z,65.80
2019-06-20T02:48:11.848Z,65.90
2019-06-20T02:49:19.856Z,66.30
2019-06-20T02:50:27.591Z,65.80
2019-06-20T02:51:36.016Z,66.10
2019-06-20T02:52:43.270Z,66.00
2019-06-20T02:53:51.277Z,66.00
2019-06-20T02:54:58.501Z,66.20
2019-06-20T02:56:06.612Z,66.40
2019-06-20T02:57:13.852Z,66.40
2019-06-20T02:58:21.888Z,66.30
2019-06-20T02:59:29.128Z,66.40
2019-06-20T03:00:55.366Z,66.50
2019-06-20T03:02:02.576Z,66.60
2019-06-20T03:03:10.563Z,66.50
2019-06-20T03:04:17.789Z,67.00
2019-06-20T03:05:25.810Z,67.30
2019-06-20T03:06:33.040Z,67.40
2019-06-20T03:07:41.045Z,67.20
2019-06-20T03:08:48.283Z,67.50
2019-06-20T03:09:56.273Z,67.40
2019-06-20T03:11:03.513Z,67.70
2019-06-20T03:12:11.521Z,67.80
2019-06-20T03:13:18.822Z,67.90
2019-06-20T03:14:26.827Z,68.10
2019-06-20T03:15:34.172Z,68.40
2019-06-20T03:16:42.176Z,68.50
2019-06-20T03:17:49.407Z,68.70
2019-06-20T03:18:58.488Z,68.90
2019-06-20T03:20:06.168Z,68.50
2019-06-20T03:21:14.172Z,68.60
2019-06-20T03:22:21.381Z,68.50
2019-06-20T03:23:29.389Z,68.40
2019-06-20T03:24:36.612Z,68.40
2019-06-20T03:25:44.651Z,68.50
2019-06-20T03:26:51.879Z,68.50
2019-06-20T03:27:59.922Z,68.30
2019-06-20T03:29:07.254Z,68.50
2019-06-20T03:30:15.321Z,68.60
2019-06-20T03:31:22.547Z,69.40
2019-06-20T03:32:30.542Z,68.50
2019-06-20T03:33:37.749Z,68.40
2019-06-20T03:34:45.771Z,68.40
2019-06-20T03:35:53.002Z,68.50
2019-06-20T03:37:01.017Z,68.70
2019-06-20T03:38:08.213Z,68.80
2019-06-20T03:39:16.250Z,68.90
2019-06-20T03:40:23.650Z,68.70
2019-06-20T03:41:31.661Z,68.80
2019-06-20T03:42:38.883Z,68.90
2019-06-20T03:43:46.875Z,68.80
2019-06-20T03:45:02.243Z,69.00
2019-06-20T03:46:03.802Z,68.90
2019-06-20T03:47:11.014Z,68.70
2019-06-20T03:48:19.036Z,68.80
2019-06-20T03:49:27.309Z,68.50
2019-06-20T03:50:35.298Z,68.70
2019-06-20T03:51:42.496Z,68.60
2019-06-20T03:53:02.354Z,68.50
2019-06-20T03:54:10.079Z,68.70
2019-06-20T03:55:18.112Z,68.40
2019-06-20T03:56:25.319Z,68.70
2019-06-20T03:57:33.339Z,68.70
2019-06-20T03:58:40.565Z,68.80
2019-06-20T03:59:48.622Z,68.80
2019-06-20T04:00:55.842Z,68.80
2019-06-20T04:02:03.837Z,68.70
2019-06-20T04:03:11.060Z,69.00
2019-06-20T04:04:19.079Z,69.00
2019-06-20T04:05:26.320Z,69.10
2019-06-20T04:06:34.311Z,68.70
2019-06-20T04:07:41.521Z,68.80
2019-06-20T04:08:49.512Z,68.70
2019-06-20T04:09:56.725Z,68.70
2019-06-20T04:11:04.732Z,68.50
2019-06-20T04:12:11.954Z,68.40
2019-06-20T04:13:19.965Z,68.40
2019-06-20T04:14:27.200Z,68.30
2019-06-20T04:15:35.912Z,68.20
2019-06-20T04:16:43.137Z,68.00
2019-06-20T04:17:51.132Z,67.90
2019-06-20T04:18:58.340Z,67.90
2019-06-20T04:20:06.359Z,67.90
2019-06-20T04:21:13.585Z,68.00
2019-06-20T04:22:21.592Z,67.90
2019-06-20T04:23:28.818Z,67.90
2019-06-20T04:24:36.844Z,67.80
2019-06-20T04:25:44.050Z,67.90
2019-06-20T04:26:52.069Z,67.90
2019-06-20T04:27:59.294Z,67.90
2019-06-20T04:29:07.315Z,67.90
2019-06-20T04:30:14.919Z,68.20
2019-06-20T04:31:22.942Z,68.40
2019-06-20T04:32:30.160Z,68.40
2019-06-20T04:33:38.194Z,68.40
2019-06-20T04:34:45.371Z,68.40
2019-06-20T04:35:53.362Z,68.50
2019-06-20T04:37:00.589Z,68.70
2019-06-20T04:38:08.632Z,68.70
2019-06-20T04:39:19.566Z,68.80
2019-06-20T04:40:25.580Z,68.80
2019-06-20T04:41:32.786Z,68.80
2019-06-20T04:42:40.797Z,68.80
2019-06-20T04:43:48.699Z,68.60
2019-06-20T04:44:57.578Z,68.50
2019-06-20T04:46:13.594Z,68.60
2019-06-20T04:47:22.678Z,68.20
2019-06-20T04:48:29.904Z,68.40
2019-06-20T04:49:37.941Z,69.10
2019-06-20T04:50:45.152Z,68.50
2019-06-20T04:51:53.144Z,68.30
2019-06-20T04:53:00.357Z,68.40
2019-06-20T04:54:08.459Z,68.30
2019-06-20T04:55:16.635Z,68.20
2019-06-20T04:56:24.646Z,68.30
2019-06-20T04:57:31.853Z,68.20
2019-06-20T04:58:40.944Z,68.10
2019-06-20T04:59:50.534Z,68.30
2019-06-20T05:00:58.555Z,68.30
2019-06-20T05:02:05.828Z,68.40
2019-06-20T05:03:13.846Z,68.20
2019-06-20T05:04:21.072Z,68.00
2019-06-20T05:05:29.095Z,68.20
2019-06-20T05:06:36.380Z,68.40
2019-06-20T05:07:44.405Z,68.70
2019-06-20T05:08:51.627Z,68.80
2019-06-20T05:09:59.632Z,68.80
2019-06-20T05:11:06.843Z,68.80
2019-06-20T05:12:14.880Z,68.90
2019-06-20T05:13:23.591Z,68.90
2019-06-20T05:14:31.612Z,69.00
2019-06-20T05:15:51.931Z,68.90
2019-06-20T05:16:48.530Z,68.70
2019-06-20T05:17:55.765Z,68.60
2019-06-20T05:19:03.762Z,68.80
2019-06-20T05:20:11.582Z,68.70
2019-06-20T05:21:22.397Z,68.70
2019-06-20T05:22:28.495Z,68.70
2019-06-20T05:23:36.515Z,68.40
2019-06-20T05:24:43.756Z,68.00
2019-06-20T05:25:51.765Z,68.70
2019-06-20T05:26:58.994Z,68.00
2019-06-20T05:28:07.016Z,67.80
2019-06-20T05:29:14.235Z,67.60
2019-06-20T05:30:22.452Z,67.50
2019-06-20T05:31:29.664Z,67.30
2019-06-20T05:32:37.641Z,67.30
2019-06-20T05:33:44.850Z,67.20
2019-06-20T05:34:52.873Z,67.40
2019-06-20T05:36:01.677Z,67.40
2019-06-20T05:37:09.665Z,67.20
2019-06-20T05:38:16.885Z,67.20
2019-06-20T05:39:24.882Z,67.30
2019-06-20T05:40:32.154Z,67.40
2019-06-20T05:41:41.211Z,67.60
2019-06-20T05:42:48.442Z,67.90
2019-06-20T05:43:56.429Z,67.90
2019-06-20T05:45:03.970Z,68.10
2019-06-20T05:46:12.008Z,68.30
2019-06-20T05:47:19.264Z,68.30
2019-06-20T05:48:27.270Z,68.50
2019-06-20T05:49:34.516Z,68.50
2019-06-20T05:50:43.534Z,68.70
2019-06-20T05:51:50.748Z,68.70
2019-06-20T05:52:58.767Z,68.60
2019-06-20T05:54:06.137Z,68.70
2019-06-20T05:55:14.147Z,68.60
2019-06-20T05:56:21.359Z,68.70
2019-06-20T05:57:29.380Z,68.60
2019-06-20T05:58:36.606Z,68.80
2019-06-20T05:59:44.612Z,69.00
2019-06-20T06:00:51.828Z,69.20
2019-06-20T06:01:59.829Z,69.00
2019-06-20T06:03:07.447Z,68.80
2019-06-20T06:04:15.570Z,68.80
2019-06-20T06:05:22.812Z,68.90
2019-06-20T06:06:30.805Z,68.90
2019-06-20T06:07:38.044Z,68.80
2019-06-20T06:08:46.190Z,68.70
2019-06-20T06:09:53.396Z,68.80
2019-06-20T06:11:01.408Z,68.80
2019-06-20T06:12:09.770Z,68.60
2019-06-20T06:13:18.995Z,68.60
2019-06-20T06:14:26.209Z,68.50
2019-06-20T06:15:34.207Z,68.50
2019-06-20T06:16:44.089Z,68.60
2019-06-20T06:17:51.123Z,68.50
2019-06-20T06:18:58.332Z,68.40
2019-06-20T06:20:06.952Z,68.40
2019-06-20T06:21:14.193Z,68.00
2019-06-20T06:22:22.202Z,67.70
2019-06-20T06:23:29.424Z,67.70
2019-06-20T06:24:37.393Z,67.50
2019-06-20T06:25:44.613Z,67.40
2019-06-20T06:26:52.785Z,67.60
2019-06-20T06:28:00.015Z,67.50
2019-06-20T06:29:08.034Z,67.40
2019-06-20T06:30:17.072Z,67.80
2019-06-20T06:31:25.068Z,67.90
2019-06-20T06:32:40.147Z,68.00
2019-06-20T06:33:41.978Z,68.20
2019-06-20T06:34:49.216Z,69.10
2019-06-20T06:35:57.213Z,68.20
2019-06-20T06:37:04.511Z,68.20
2019-06-20T06:38:12.487Z,68.10
2019-06-20T06:39:19.718Z,68.20
2019-06-20T06:40:29.278Z,68.40
2019-06-20T06:41:36.489Z,68.50
2019-06-20T06:42:44.508Z,68.10
2019-06-20T06:43:51.722Z,68.20
2019-06-20T06:44:59.744Z,68.30
2019-06-20T06:46:06.975Z,67.90
2019-06-20T06:47:14.993Z,67.90
2019-06-20T06:48:22.233Z,67.70
2019-06-20T06:49:31.320Z,67.60
2019-06-20T06:50:38.712Z,67.40
2019-06-20T06:51:46.793Z,67.20
2019-06-20T06:52:54.002Z,67.40
2019-06-20T06:54:01.969Z,67.20
2019-06-20T06:55:09.714Z,67.30
2019-06-20T06:56:17.718Z,67.40
2019-06-20T06:57:26.009Z,67.50
2019-06-20T06:58:34.032Z,67.60
2019-06-20T06:59:41.244Z,67.80
2019-06-20T07:00:49.611Z,66.10
2019-06-20T07:01:56.821Z,66.00
2019-06-20T07:03:04.851Z,65.60
2019-06-20T07:04:12.071Z,65.30
2019-06-20T07:05:20.288Z,65.50
2019-06-20T07:06:27.536Z,65.20
2019-06-20T07:07:35.531Z,64.00
2019-06-20T07:08:42.819Z,63.80
2019-06-20T07:09:50.810Z,64.00
2019-06-20T07:10:58.035Z,64.80
2019-06-20T07:12:06.088Z,65.00
2019-06-20T07:13:13.268Z,64.90
2019-06-20T07:14:21.287Z,65.00
2019-06-20T07:15:28.529Z,65.30
2019-06-20T07:16:36.610Z,65.50
2019-06-20T07:17:43.843Z,65.30
2019-06-20T07:18:53.372Z,65.20
2019-06-20T07:20:00.588Z,65.30
2019-06-20T07:21:10.465Z,65.40
2019-06-20T07:22:17.676Z,65.70
2019-06-20T07:23:25.685Z,66.10
2019-06-20T07:24:32.897Z,66.50
2019-06-20T07:25:40.915Z,66.50
2019-06-20T07:26:48.126Z,66.80
2019-06-20T07:27:56.134Z,66.80
2019-06-20T07:29:03.393Z,67.20
2019-06-20T07:30:12.609Z,67.60
2019-06-20T07:31:19.829Z,67.80
2019-06-20T07:32:27.829Z,67.70
2019-06-20T07:33:35.054Z,67.80
2019-06-20T07:34:43.044Z,68.20
2019-06-20T07:35:51.228Z,68.20
2019-06-20T07:36:59.223Z,68.30
2019-06-20T07:38:06.434Z,68.30
2019-06-20T07:39:14.451Z,68.20
2019-06-20T07:40:21.653Z,68.30
2019-06-20T07:41:30.737Z,68.80
2019-06-20T07:42:38.215Z,69.00
2019-06-20T07:43:46.234Z,69.80
2019-06-20T07:44:53.447Z,69.30
2019-06-20T07:46:03.201Z,69.40
2019-06-20T07:47:17.440Z,69.30
2019-06-20T07:48:20.123Z,69.40
2019-06-20T07:49:27.345Z,69.30
2019-06-20T07:50:39.149Z,69.20
2019-06-20T07:51:44.287Z,69.00
2019-06-20T07:53:01.826Z,68.80
2019-06-20T07:54:01.249Z,68.90
2019-06-20T07:55:09.791Z,69.00
2019-06-20T07:56:17.032Z,69.00
2019-06-20T07:57:24.977Z,69.20
2019-06-20T07:58:32.220Z,69.50
2019-06-20T07:59:40.240Z,69.70
2019-06-20T08:00:47.467Z,69.80
2019-06-20T08:01:55.473Z,69.60
2019-06-20T08:03:02.697Z,69.70
2019-06-20T08:04:10.741Z,69.60
2019-06-20T08:05:18.769Z,69.80
2019-06-20T08:06:26.760Z,70.00
2019-06-20T08:07:33.988Z,69.70
2019-06-20T08:08:43.075Z,70.00
2019-06-20T08:09:50.376Z,69.90
2019-06-20T08:10:58.390Z,69.90
2019-06-20T08:12:05.695Z,69.60
2019-06-20T08:13:13.692Z,69.10
2019-06-20T08:14:20.983Z,69.30
2019-06-20T08:15:29.658Z,69.60
2019-06-20T08:16:36.871Z,70.00
2019-06-20T08:17:44.928Z,69.90
2019-06-20T08:18:52.185Z,70.30
2019-06-20T08:20:00.275Z,69.60
2019-06-20T08:21:07.508Z,69.10
2019-06-20T08:22:16.311Z,70.30
2019-06-20T08:23:23.534Z,70.30
2019-06-20T08:24:31.556Z,70.10
2019-06-20T08:25:38.783Z,70.20
2019-06-20T08:26:46.774Z,69.80
2019-06-20T08:27:54.108Z,69.50
2019-06-20T08:29:16.142Z,69.20
2019-06-20T08:30:11.332Z,68.70
2019-06-20T08:31:19.354Z,68.70
2019-06-20T08:32:26.570Z,68.50
2019-06-20T08:33:34.585Z,68.00
2019-06-20T08:34:41.826Z,68.10
2019-06-20T08:35:49.831Z,68.70
2019-06-20T08:36:57.701Z,68.90
2019-06-20T08:38:07.606Z,68.60
2019-06-20T08:39:15.214Z,69.50
2019-06-20T08:40:24.284Z,68.60
2019-06-20T08:41:31.525Z,68.90
2019-06-20T08:42:39.570Z,68.50
2019-06-20T08:43:46.772Z,68.10
2019-06-20T08:44:56.263Z,67.20
2019-06-20T08:46:04.558Z,66.90
2019-06-20T08:47:13.764Z,67.00
2019-06-20T08:48:21.050Z,66.90
2019-06-20T08:49:29.087Z,66.80
2019-06-20T08:50:36.707Z,66.80
2019-06-20T08:51:44.760Z,67.00
2019-06-20T08:52:51.996Z,67.10
2019-06-20T08:54:01.134Z,66.60
2019-06-20T08:55:09.294Z,66.30
2019-06-20T08:56:17.315Z,65.70
2019-06-20T08:57:24.539Z,65.50
2019-06-20T08:58:32.550Z,65.90
2019-06-20T08:59:39.798Z,66.10
2019-06-20T09:00:47.885Z,66.20
2019-06-20T09:01:57.972Z,66.40
2019-06-20T09:03:04.902Z,66.50
2019-06-20T09:04:12.135Z,66.90
2019-06-20T09:05:22.720Z,66.50
2019-06-20T09:06:29.947Z,66.60
2019-06-20T09:07:41.725Z,66.50
2019-06-20T09:08:47.919Z,67.10
2019-06-20T09:09:56.026Z,67.40
2019-06-20T09:11:04.072Z,67.50
2019-06-20T09:12:12.144Z,67.60
2019-06-20T09:13:19.370Z,67.00
2019-06-20T09:14:27.415Z,66.60
2019-06-20T09:15:34.633Z,66.70
2019-06-20T09:16:42.667Z,66.60
2019-06-20T09:17:49.877Z,66.50
2019-06-20T09:18:58.431Z,66.80
2019-06-20T09:20:07.304Z,66.80
2019-06-20T09:21:15.293Z,66.70
2019-06-20T09:22:22.519Z,66.80
2019-06-20T09:23:30.514Z,67.00
2019-06-20T09:24:37.751Z,67.10
2019-06-20T09:25:45.771Z,67.20
2019-06-20T09:26:53.916Z,67.20
2019-06-20T09:28:02.663Z,67.00
2019-06-20T09:29:10.000Z,67.10
2019-06-20T09:30:18.515Z,67.30
2019-06-20T09:31:25.747Z,67.30
2019-06-20T09:32:34.758Z,66.90
2019-06-20T09:33:42.002Z,66.10
2019-06-20T09:34:51.416Z,65.80
2019-06-20T09:35:59.561Z,65.00
2019-06-20T09:37:07.777Z,64.90
2019-06-20T09:38:15.002Z,64.80
2019-06-20T09:39:22.984Z,65.20
2019-06-20T09:40:30.795Z,64.60
2019-06-20T09:41:38.806Z,64.20
2019-06-20T09:42:46.042Z,64.50
2019-06-20T09:43:54.281Z,64.50
2019-06-20T09:45:02.848Z,64.20
2019-06-20T09:46:11.131Z,64.00
2019-06-20T09:47:18.367Z,64.20
2019-06-20T09:48:26.391Z,63.90
2019-06-20T09:49:33.634Z,63.80
2019-06-20T09:50:41.678Z,63.40
2019-06-20T09:51:50.254Z,63.80
2019-06-20T09:52:58.511Z,63.70
2019-06-20T09:54:05.964Z,63.20
2019-06-20T09:55:15.073Z,62.80
2019-06-20T09:56:22.280Z,62.70
2019-06-20T09:57:30.286Z,62.90
2019-06-20T09:58:37.521Z,63.20
2019-06-20T09:59:59.485Z,62.90
2019-06-20T10:00:55.124Z,63.10
2019-06-20T10:02:03.301Z,63.40
2019-06-20T10:03:11.715Z,63.10
2019-06-20T10:04:21.614Z,62.50
2019-06-20T10:05:28.774Z,61.90
2019-06-20T10:06:36.802Z,61.90
2019-06-20T10:07:45.535Z,62.10
2019-06-20T10:08:54.861Z,62.10
2019-06-20T10:10:02.379Z,62.00
2019-06-20T10:12:01.085Z,62.00
2019-06-20T10:13:09.197Z,61.70
2019-06-20T10:14:16.725Z,61.70
2019-06-20T10:15:26.980Z,61.50
2019-06-20T10:16:45.256Z,61.20
2019-06-20T10:17:43.968Z,61.40
2019-06-20T10:18:52.159Z,60.90
2019-06-20T10:20:00.494Z,61.40
2019-06-20T10:21:07.723Z,60.70
2019-06-20T10:22:15.740Z,60.20
2019-06-20T10:23:22.947Z,60.40
2019-06-20T10:24:30.940Z,59.40
2019-06-20T10:25:38.616Z,59.00
2019-06-20T10:26:47.866Z,59.10
2019-06-20T10:27:55.650Z,58.90
2019-06-20T10:29:03.716Z,58.40
2019-06-20T10:30:14.571Z,58.30
2019-06-20T10:31:21.125Z,58.40
2019-06-20T10:32:28.361Z,58.60
2019-06-20T10:33:36.443Z,58.50
2019-06-20T10:34:45.150Z,58.50
2019-06-20T10:35:53.379Z,58.50
2019-06-20T10:37:00.583Z,58.30
2019-06-20T10:38:08.587Z,58.50
2019-06-20T10:39:15.813Z,58.50
2019-06-20T10:40:26.025Z,58.40
2019-06-20T10:41:33.270Z,57.90
2019-06-20T10:42:44.417Z,57.80
2019-06-20T10:43:52.279Z,57.80
2019-06-20T10:45:00.332Z,58.00
2019-06-20T10:46:07.766Z,57.90
2019-06-20T10:47:15.788Z,57.40
2019-06-20T10:48:22.988Z,57.00
2019-06-20T10:49:31.003Z,56.60
2019-06-20T10:50:38.265Z,56.80
2019-06-20T10:51:47.592Z,57.00
2019-06-20T10:52:55.123Z,56.60
2019-06-20T10:54:03.253Z,56.50
2019-06-20T10:55:11.561Z,56.60
2019-06-20T10:56:19.580Z,56.80
2019-06-20T10:57:26.836Z,56.70
2019-06-20T10:58:34.875Z,56.80
2019-06-20T10:59:42.717Z,56.60
2019-06-20T11:00:50.734Z,56.80
2019-06-20T11:01:57.983Z,57.00
2019-06-20T11:03:07.551Z,57.30
2019-06-20T11:04:14.783Z,57.20
2019-06-20T11:05:23.562Z,56.20
2019-06-20T11:06:30.814Z,55.40
2019-06-20T11:07:38.875Z,55.50
2019-06-20T11:08:49.488Z,55.30
2019-06-20T11:09:57.499Z,55.60
2019-06-20T11:11:04.803Z,55.80
2019-06-20T11:12:12.812Z,55.50
2019-06-20T11:13:20.048Z,55.00
2019-06-20T11:14:28.070Z,53.80
2019-06-20T11:15:37.718Z,53.60
2019-06-20T11:16:47.141Z,53.70
2019-06-20T11:17:56.569Z,53.70
2019-06-20T11:19:04.234Z,53.50
2019-06-20T11:20:14.880Z,52.70
2019-06-20T11:21:22.889Z,52.20
2019-06-20T11:22:30.087Z,52.40
2019-06-20T11:23:39.327Z,52.70
2019-06-20T11:24:47.444Z,52.40
2019-06-20T11:25:55.552Z,52.20
2019-06-20T11:27:02.769Z,51.90
2019-06-20T11:28:10.789Z,52.50
2019-06-20T11:29:18.055Z,52.40
2019-06-20T11:30:26.608Z,52.20
2019-06-20T11:31:33.817Z,52.40
2019-06-20T11:32:41.841Z,52.60
2019-06-20T11:33:49.069Z,52.70
2019-06-20T11:34:57.137Z,52.80
2019-06-20T11:36:04.688Z,53.10
2019-06-20T11:37:12.753Z,53.60
2019-06-20T11:38:19.979Z,53.80
2019-06-20T11:39:27.971Z,53.70
2019-06-20T11:40:36.433Z,53.60
2019-06-20T11:41:44.901Z,53.10
2019-06-20T11:42:52.122Z,53.00
2019-06-20T11:44:00.148Z,52.90
2019-06-20T11:45:09.293Z,52.80
2019-06-20T11:46:17.269Z,53.20
2019-06-20T11:47:24.498Z,52.60
2019-06-20T11:48:32.486Z,51.90
2019-06-20T11:49:40.414Z,52.80
2019-06-20T11:50:48.667Z,53.20
2019-06-20T11:51:56.487Z,53.00
2019-06-20T11:53:04.689Z,52.60
2019-06-20T11:54:11.914Z,52.50
2019-06-20T11:55:20.342Z,52.10
2019-06-20T11:56:27.568Z,52.00
2019-06-20T11:57:35.574Z,51.70
2019-06-20T11:58:42.801Z,51.90
2019-06-20T11:59:50.859Z,52.40
2019-06-20T12:01:03.712Z,52.60
2019-06-20T12:02:07.882Z,52.60
2019-06-20T12:03:15.101Z,52.60
2019-06-20T12:04:23.090Z,52.80
2019-06-20T12:05:30.312Z,52.90
2019-06-20T12:06:38.464Z,52.20
2019-06-20T12:07:47.769Z,52.00
2019-06-20T12:08:56.615Z,52.10
2019-06-20T12:10:04.031Z,52.50
2019-06-20T12:11:12.040Z,52.20
2019-06-20T12:12:19.309Z,52.50
2019-06-20T12:13:27.302Z,51.80
2019-06-20T12:14:34.547Z,51.80
2019-06-20T12:15:42.886Z,51.70
2019-06-20T12:16:50.148Z,51.60
2019-06-20T12:17:58.156Z,51.40
2019-06-20T12:19:05.426Z,51.50
2019-06-20T12:20:15.401Z,51.50
2019-06-20T12:21:22.608Z,51.60
2019-06-20T12:22:30.629Z,51.80
2019-06-20T12:23:39.022Z,52.00
2019-06-20T12:24:48.888Z,51.50
2019-06-20T12:25:56.117Z,51.70
2019-06-20T12:27:04.253Z,52.00
2019-06-20T12:28:11.499Z,52.30
2019-06-20T12:29:19.523Z,52.70
2019-06-20T12:30:27.152Z,52.90
2019-06-20T12:31:35.170Z,52.50
2019-06-20T12:32:42.531Z,52.60
2019-06-20T12:33:50.558Z,52.10
2019-06-20T12:34:57.846Z,51.80
2019-06-20T12:36:06.043Z,51.50
2019-06-20T12:37:13.269Z,51.50
2019-06-20T12:38:21.293Z,52.20
2019-06-20T12:39:28.523Z,51.60
2019-06-20T12:40:39.136Z,51.30
2019-06-20T12:41:45.637Z,51.70
2019-06-20T12:42:53.639Z,51.50
2019-06-20T12:44:00.872Z,51.70
2019-06-20T12:45:10.797Z,51.60
2019-06-20T12:46:18.971Z,51.30
2019-06-20T12:47:26.976Z,51.00
2019-06-20T12:48:34.158Z,51.10
2019-06-20T12:49:42.162Z,50.90
2019-06-20T12:50:49.629Z,50.40
2019-06-20T12:51:57.679Z,51.20
2019-06-20T12:53:04.921Z,51.00
2019-06-20T12:54:13.123Z,50.70
2019-06-20T12:55:20.384Z,51.30
2019-06-20T12:56:28.596Z,50.90
2019-06-20T12:57:35.836Z,50.40
2019-06-20T12:58:44.526Z,50.60
2019-06-20T12:59:51.937Z,50.70
2019-06-20T13:00:59.947Z,50.70
2019-06-20T13:02:07.157Z,50.40
2019-06-20T13:03:15.151Z,50.30
2019-06-20T13:04:22.372Z,50.40
2019-06-20T13:05:30.499Z,50.30
2019-06-20T13:06:38.822Z,50.60
2019-06-20T13:07:47.517Z,50.00
2019-06-20T13:08:54.967Z,49.60
2019-06-20T13:10:02.996Z,49.60
2019-06-20T13:11:10.443Z,49.90
2019-06-20T13:12:18.537Z,50.10
2019-06-20T13:13:26.818Z,50.40
2019-06-20T13:14:34.833Z,49.90
2019-06-20T13:15:42.493Z,50.10
2019-06-20T13:16:50.638Z,50.10
2019-06-20T13:17:57.861Z,50.10
2019-06-20T13:19:05.986Z,50.40
2019-06-20T13:20:14.303Z,50.40
2019-06-20T13:21:22.303Z,50.30
2019-06-20T13:22:29.540Z,50.60
2019-06-20T13:23:38.621Z,50.60
2019-06-20T13:24:47.204Z,50.50
2019-06-20T13:25:55.359Z,50.90
2019-06-20T13:27:02.586Z,51.20
2019-06-20T13:28:10.612Z,51.30
2019-06-20T13:29:17.837Z,51.00
2019-06-20T13:30:26.050Z,50.90
2019-06-20T13:31:33.275Z,50.90
2019-06-20T13:32:42.108Z,50.90
2019-06-20T13:33:50.204Z,51.10
2019-06-20T13:34:58.206Z,51.30
2019-06-20T13:36:05.524Z,51.40
2019-06-20T13:37:15.563Z,51.50
2019-06-20T13:38:22.535Z,52.00
2019-06-20T13:39:30.563Z,52.30
2019-06-20T13:40:39.574Z,52.10
2019-06-20T13:41:48.059Z,51.70
2019-06-20T13:42:55.391Z,51.80
2019-06-20T13:44:04.738Z,52.30
2019-06-20T13:45:22.861Z,52.60
2019-06-20T13:46:30.848Z,53.10
2019-06-20T13:47:39.711Z,53.70
2019-06-20T13:48:49.682Z,54.40
2019-06-20T13:49:56.935Z,53.30
2019-06-20T13:51:04.960Z,53.20
2019-06-20T13:52:12.184Z,54.10
2019-06-20T13:53:20.206Z,54.10
2019-06-20T13:54:27.444Z,54.30
2019-06-20T13:55:36.246Z,54.30
2019-06-20T13:56:43.629Z,54.90
2019-06-20T13:57:51.686Z,54.90
2019-06-20T13:58:58.933Z,55.20
2019-06-20T14:00:08.630Z,55.60
2019-06-20T14:01:15.972Z,55.60
2019-06-20T14:02:23.978Z,55.60
2019-06-20T14:03:31.206Z,56.00
2019-06-20T14:04:41.082Z,55.90
2019-06-20T14:05:49.780Z,55.80
2019-06-20T14:06:57.923Z,56.10
2019-06-20T14:08:05.179Z,56.60
2019-06-20T14:09:13.222Z,57.90
2019-06-20T14:10:20.646Z,58.00
2019-06-20T14:11:28.666Z,58.50
2019-06-20T14:12:35.890Z,58.80
2019-06-20T14:13:47.702Z,58.90
2019-06-20T14:14:52.797Z,59.00
2019-06-20T14:16:00.793Z,59.40
2019-06-20T14:17:07.977Z,59.80
2019-06-20T14:18:15.979Z,60.20
2019-06-20T14:19:23.176Z,60.00
2019-06-20T14:20:31.186Z,59.90
2019-06-20T14:21:38.394Z,59.60
2019-06-20T14:22:46.413Z,59.00
2019-06-20T14:23:53.921Z,59.40
2019-06-20T14:25:01.915Z,59.40
2019-06-20T14:26:09.157Z,59.40
2019-06-20T14:27:17.160Z,59.50
2019-06-20T14:28:24.362Z,59.50
2019-06-20T14:29:32.379Z,59.30
2019-06-20T14:30:39.704Z,59.00
2019-06-20T14:31:47.701Z,59.40
2019-06-20T14:32:56.011Z,59.60
2019-06-20T14:34:04.154Z,59.60
2019-06-20T14:35:11.808Z,60.00
2019-06-20T14:36:19.820Z,60.30